Time;durP1;ratioP1;P1;durP2;ratioP2;P2;SDS_P1;SDS_P2;PMS_P1;PMS_P2;Temp;Humidity;BMP_temperature;BMP_pressure;BME280_temperature;BME280_humidity;BME280_pressure;Samples;Min_cycle;Max_cycle;Signal;HPM_P1;HPM_P2
2022/04/23 00:01:11;;;;;;;9.80;4.97;;;;;;;7.34;100.00;101062.03;5086578;28;20032;-78
2022/04/23 00:03:37;;;;;;;10.82;4.57;;;;;;;7.30;100.00;101064.06;5054460;28;20035;-78
2022/04/23 00:06:03;;;;;;;7.15;4.60;;;;;;;7.23;100.00;101065.47;5090458;28;20589;-76
2022/04/23 00:08:29;;;;;;;10.52;4.65;;;;;;;7.25;100.00;101057.53;5065585;28;20052;-77
2022/04/23 00:10:55;;;;;;;8.18;4.55;;;;;;;7.27;100.00;101060.84;5088054;28;20036;-78
2022/04/23 00:13:21;;;;;;;6.65;4.40;;;;;;;7.27;100.00;101053.88;5090525;28;20070;-78
2022/04/23 00:15:47;;;;;;;7.38;4.72;;;;;;;7.25;100.00;101055.72;5072658;28;20109;-79
2022/04/23 00:18:12;;;;;;;9.30;4.65;;;;;;;7.13;100.00;101054.06;5070912;28;20116;-78
2022/04/23 00:20:39;;;;;;;6.72;4.55;;;;;;;7.04;100.00;101066.03;5092003;28;20032;-77
2022/04/23 00:23:06;;;;;;;8.73;4.82;;;;;;;7.06;100.00;101063.31;5073143;28;20482;-81
2022/04/23 00:25:37;;;;;;;8.23;4.88;;;;;;;6.98;100.00;101062.09;5085556;28;20033;-78
2022/04/23 00:28:03;;;;;;;9.27;4.93;;;;;;;6.92;100.00;101056.53;5072527;28;20452;-77
2022/04/23 00:30:29;;;;;;;6.97;4.65;;;;;;;6.90;100.00;101053.22;5086201;28;20027;-78
2022/04/23 00:32:59;;;;;;;8.32;4.50;;;;;;;6.70;100.00;101052.91;5083510;28;20031;-77
2022/04/23 00:35:24;;;;;;;7.88;4.88;;;;;;;6.76;100.00;101052.47;5083524;28;20502;-78
2022/04/23 00:37:50;;;;;;;9.93;5.00;;;;;;;6.67;100.00;101042.72;5086473;28;20040;-76
2022/04/23 00:40:20;;;;;;;9.40;5.32;;;;;;;6.61;100.00;101050.97;5055739;28;20032;-80
2022/04/23 00:42:53;;;;;;;10.93;4.90;;;;;;;6.58;100.00;101059.03;5088449;28;20048;-79
2022/04/23 00:45:23;;;;;;;9.00;5.32;;;;;;;6.50;100.00;101064.81;5067990;28;20624;-79
2022/04/23 00:47:49;;;;;;;10.98;5.20;;;;;;;6.50;100.00;101067.41;5067479;28;20100;-79
2022/04/23 00:50:20;;;;;;;11.25;5.70;;;;;;;6.45;100.00;101064.31;5085412;28;20115;-79
2022/04/23 00:53:13;;;;;;;8.13;5.20;;;;;;;6.37;100.00;101061.44;5070513;28;20793;-78
2022/04/23 00:55:38;;;;;;;11.23;5.55;;;;;;;6.32;100.00;101066.16;5079952;28;20567;-78
2022/04/23 00:58:04;;;;;;;7.90;5.53;;;;;;;6.27;100.00;101063.84;5083308;28;20063;-78
2022/04/23 01:00:30;;;;;;;11.63;6.38;;;;;;;6.26;100.00;101061.38;5099037;28;20622;-78
2022/04/23 01:02:56;;;;;;;8.30;5.60;;;;;;;6.14;100.00;101053.50;5074655;28;20036;-79
2022/04/23 01:05:26;;;;;;;7.45;5.50;;;;;;;6.16;100.00;101058.59;5073522;28;20048;-78
2022/04/23 01:07:53;;;;;;;8.52;5.80;;;;;;;6.27;100.00;101061.25;5084153;28;20410;-78
2022/04/23 01:10:19;;;;;;;10.10;5.97;;;;;;;6.24;100.00;101058.88;5072366;28;20051;-80
2022/04/23 01:12:46;;;;;;;8.57;6.10;;;;;;;6.12;100.00;101050.19;5086598;28;20568;-78
2022/04/23 01:15:13;;;;;;;8.27;6.40;;;;;;;6.20;100.00;101066.09;5071701;28;20036;-80
2022/04/23 01:17:40;;;;;;;11.77;6.65;;;;;;;6.04;100.00;101048.09;5074250;28;20384;-75
2022/04/23 01:20:12;;;;;;;8.55;6.47;;;;;;;6.07;100.00;101062.69;5074230;28;20055;-78
2022/04/23 01:22:40;;;;;;;9.40;6.30;;;;;;;6.08;100.00;101060.91;5085180;28;20039;-77
2022/04/23 01:25:08;;;;;;;12.73;6.90;;;;;;;6.11;100.00;101068.53;5083625;28;20486;-77
2022/04/23 01:27:34;;;;;;;8.63;6.43;;;;;;;5.95;100.00;101061.81;5066319;28;20040;-78
2022/04/23 01:30:01;;;;;;;12.70;6.95;;;;;;;5.99;100.00;101063.25;5073340;28;20370;-77
2022/04/23 01:32:27;;;;;;;11.68;7.03;;;;;;;6.00;100.00;101067.50;5089203;28;20502;-78
2022/04/23 01:34:52;;;;;;;13.50;7.00;;;;;;;5.89;100.00;101056.97;5070813;28;20055;-78
2022/04/23 01:37:18;;;;;;;14.27;7.15;;;;;;;5.89;100.00;101067.38;5082641;28;20048;-79
2022/04/23 01:39:44;;;;;;;11.63;7.57;;;;;;;5.87;100.00;101064.06;5072563;28;20072;-79
2022/04/23 01:42:10;;;;;;;12.15;7.65;;;;;;;5.73;100.00;101072.03;5055666;28;20104;-79
2022/04/23 01:44:36;;;;;;;10.27;7.60;;;;;;;5.69;100.00;101070.56;5100903;28;20032;-79
2022/04/23 01:47:02;;;;;;;13.93;7.63;;;;;;;5.61;100.00;101048.53;5085438;28;20042;-79
2022/04/23 01:49:28;;;;;;;9.68;7.13;;;;;;;5.63;100.00;101061.41;5072124;28;20040;-79
2022/04/23 01:51:54;;;;;;;12.88;8.40;;;;;;;5.62;100.00;101065.78;5074037;28;20040;-78
2022/04/23 01:54:19;;;;;;;13.00;7.78;;;;;;;5.58;100.00;101053.94;5071223;28;20029;-79
2022/04/23 01:56:45;;;;;;;14.13;8.48;;;;;;;5.54;100.00;101062.03;5088617;28;20042;-79
2022/04/23 01:59:11;;;;;;;15.43;8.77;;;;;;;5.50;100.00;101060.59;5100359;28;20041;-79
2022/04/23 02:01:37;;;;;;;10.18;8.40;;;;;;;5.43;100.00;101058.41;5072137;28;20042;-78
2022/04/23 02:04:06;;;;;;;14.13;9.07;;;;;;;5.42;100.00;101056.75;5082768;28;20036;-78
2022/04/23 02:06:33;;;;;;;12.93;8.82;;;;;;;5.41;100.00;101062.91;5069932;28;20040;-79
2022/04/23 02:09:00;;;;;;;12.88;8.65;;;;;;;5.41;100.00;101062.06;5058831;28;20097;-80
2022/04/23 02:11:26;;;;;;;15.90;9.10;;;;;;;5.31;100.00;101055.81;5075379;28;20032;-79
2022/04/23 02:13:51;;;;;;;14.18;9.73;;;;;;;5.28;100.00;101056.88;5071963;28;20027;-79
2022/04/23 02:16:17;;;;;;;15.05;10.13;;;;;;;5.33;100.00;101062.59;5084894;28;20032;-77
2022/04/23 02:18:42;;;;;;;15.13;9.93;;;;;;;5.24;100.00;101066.66;5091534;28;20048;-76
2022/04/23 02:21:08;;;;;;;18.23;11.13;;;;;;;5.29;100.00;101057.69;5054979;28;20081;-76
2022/04/23 02:23:33;;;;;;;15.85;10.77;;;;;;;5.22;100.00;101050.31;5092071;28;20047;-78
2022/04/23 02:25:59;;;;;;;17.42;11.15;;;;;;;5.31;100.00;101059.25;5095643;28;20036;-78
2022/04/23 02:28:25;;;;;;;16.75;10.65;;;;;;;5.26;100.00;101058.75;5073651;28;20563;-80
2022/04/23 02:30:50;;;;;;;14.65;11.55;;;;;;;5.24;100.00;101056.25;5070921;28;20062;-79
2022/04/23 02:33:16;;;;;;;19.63;11.05;;;;;;;5.24;100.00;101064.03;5073848;28;20040;-77
2022/04/23 02:35:43;;;;;;;18.02;11.05;;;;;;;5.16;100.00;101061.16;5088373;28;20043;-79
2022/04/23 02:38:09;;;;;;;16.23;11.32;;;;;;;5.12;100.00;101046.66;5070888;28;20044;-79
2022/04/23 02:40:35;;;;;;;14.32;10.90;;;;;;;5.09;100.00;101046.88;5069988;28;20060;-78
2022/04/23 02:43:03;;;;;;;19.58;11.80;;;;;;;5.01;100.00;101057.81;5043391;28;20067;-80
2022/04/23 02:45:28;;;;;;;18.60;11.75;;;;;;;4.96;100.00;101053.84;5098617;28;20494;-80
2022/04/23 02:47:56;;;;;;;22.13;11.85;;;;;;;4.91;100.00;101058.50;5054427;28;20075;-78
2022/04/23 02:50:33;;;;;;;16.52;11.80;;;;;;;4.93;100.00;101060.06;5072213;28;20040;-78
2022/04/23 02:52:59;;;;;;;16.10;11.57;;;;;;;4.87;100.00;101057.88;5068771;28;20040;-79
2022/04/23 02:55:27;;;;;;;16.92;12.00;;;;;;;4.94;100.00;101059.13;5072689;28;20170;-79
2022/04/23 02:57:53;;;;;;;15.95;11.95;;;;;;;4.98;100.00;101062.38;5057949;28;20032;-79
2022/04/23 03:00:19;;;;;;;20.67;12.20;;;;;;;4.92;100.00;101061.00;5054674;28;20551;-79
2022/04/23 03:02:47;;;;;;;18.55;12.38;;;;;;;4.96;100.00;101062.47;5081051;28;20037;-79
2022/04/23 03:05:14;;;;;;;19.73;12.88;;;;;;;4.91;100.00;101051.53;5088434;28;20123;-79
2022/04/23 03:07:41;;;;;;;16.38;12.63;;;;;;;4.96;100.00;101059.88;5088422;28;20113;-79
2022/04/23 03:10:08;;;;;;;19.88;12.65;;;;;;;4.88;100.00;101059.56;5059949;28;20031;-80
2022/04/23 03:12:36;;;;;;;18.25;13.23;;;;;;;4.82;100.00;101055.59;5065407;28;20040;-77
2022/04/23 03:15:06;;;;;;;19.95;13.35;;;;;;;4.76;100.00;101058.56;5068062;28;20039;-76
2022/04/23 03:17:32;;;;;;;19.10;13.43;;;;;;;4.77;100.00;101068.06;5090051;28;20040;-78
2022/04/23 03:19:58;;;;;;;17.02;13.32;;;;;;;4.79;100.00;101065.34;5104852;28;20040;-78
2022/04/23 03:22:24;;;;;;;21.95;14.13;;;;;;;4.81;100.00;101066.09;5088781;28;20096;-80
2022/04/23 03:24:49;;;;;;;17.40;12.98;;;;;;;4.74;100.00;101060.44;5070518;28;20036;-78
2022/04/23 03:27:15;;;;;;;23.55;14.27;;;;;;;4.72;100.00;101075.31;5088303;28;20126;-79
2022/04/23 03:29:41;;;;;;;22.83;14.40;;;;;;;4.67;100.00;101067.84;5073815;28;20100;-78
2022/04/23 03:32:07;;;;;;;22.42;15.25;;;;;;;4.68;100.00;101063.47;5090458;28;20032;-78
2022/04/23 03:34:33;;;;;;;25.05;14.43;;;;;;;4.64;100.00;101059.41;5079638;28;20028;-78
2022/04/23 03:36:58;;;;;;;27.58;15.85;;;;;;;4.59;100.00;101061.47;5056052;28;20036;-79
2022/04/23 03:39:24;;;;;;;28.08;16.52;;;;;;;4.58;100.00;101060.63;5071752;28;20506;-80
2022/04/23 03:41:50;;;;;;;25.63;16.92;;;;;;;4.54;100.00;101066.97;5072963;28;20122;-78
2022/04/23 03:44:16;;;;;;;23.67;16.88;;;;;;;4.55;100.00;101063.41;5104422;28;20508;-78
2022/04/23 03:46:41;;;;;;;29.45;16.50;;;;;;;4.56;100.00;101072.91;5074743;28;20036;-76
2022/04/23 03:49:09;;;;;;;26.75;16.85;;;;;;;4.47;100.00;101069.13;5088118;28;20032;-78
2022/04/23 03:51:35;;;;;;;28.42;17.55;;;;;;;4.49;100.00;101069.03;5057349;28;20436;-78
2022/04/23 03:54:01;;;;;;;25.52;16.85;;;;;;;4.53;100.00;101062.69;5089831;28;20064;-78
2022/04/23 03:56:27;;;;;;;31.27;16.98;;;;;;;4.56;100.00;101070.28;5102631;28;20035;-78
2022/04/23 03:58:53;;;;;;;25.63;16.45;;;;;;;4.56;100.00;101069.44;5071726;28;20032;-78
2022/04/23 04:01:19;;;;;;;25.02;17.00;;;;;;;4.55;100.00;101078.19;5079650;28;20043;-77
2022/04/23 04:03:44;;;;;;;25.92;17.05;;;;;;;4.48;100.00;101072.53;5089750;28;20036;-76
2022/04/23 04:06:11;;;;;;;29.38;17.33;;;;;;;4.40;100.00;101073.03;5088642;28;20031;-77
2022/04/23 04:08:37;;;;;;;21.50;15.98;;;;;;;4.39;100.00;101070.53;5058444;28;20124;-78
2022/04/23 04:11:02;;;;;;;25.25;17.20;;;;;;;4.35;100.00;101067.31;5090218;28;20107;-77
2022/04/23 04:13:28;;;;;;;26.10;16.90;;;;;;;4.29;100.00;101065.94;5087147;28;20177;-80
2022/04/23 04:15:54;;;;;;;28.75;16.65;;;;;;;4.30;100.00;101071.97;5090110;28;20038;-78
2022/04/23 04:18:21;;;;;;;26.95;17.45;;;;;;;4.31;100.00;101076.22;5070351;28;20137;-79
2022/04/23 04:20:49;;;;;;;26.33;17.85;;;;;;;4.24;100.00;101070.59;5070181;28;20020;-79
2022/04/23 04:23:15;;;;;;;26.17;18.17;;;;;;;4.33;100.00;101073.53;5102736;28;20403;-79
2022/04/23 04:25:41;;;;;;;33.60;18.67;;;;;;;4.33;100.00;101078.72;5090717;28;20375;-78
2022/04/23 04:28:09;;;;;;;26.23;17.27;;;;;;;4.41;100.00;101077.31;5086101;28;20039;-77
2022/04/23 04:33:20;;;;;;;26.33;18.52;;;;;;;4.56;100.00;101080.69;5090758;28;20038;-77
2022/04/23 04:35:45;;;;;;;28.65;17.80;;;;;;;4.52;100.00;101075.78;5075805;28;20488;-78
2022/04/23 04:38:11;;;;;;;30.95;18.42;;;;;;;4.56;100.00;101075.50;5056110;28;20032;-78
2022/04/23 04:40:37;;;;;;;27.52;18.80;;;;;;;4.62;100.00;101095.03;5092778;28;20032;-77
2022/04/23 04:43:02;;;;;;;28.35;18.33;;;;;;;4.64;100.00;101078.41;5091725;28;20064;-78
2022/04/23 04:45:28;;;;;;;24.60;17.58;;;;;;;4.74;100.00;101080.41;5073854;28;20047;-78
2022/04/23 04:47:53;;;;;;;23.90;17.90;;;;;;;4.74;100.00;101083.00;5093006;28;20493;-78
2022/04/23 04:50:19;;;;;;;26.83;17.48;;;;;;;4.77;100.00;101075.84;5091553;28;20097;-79
2022/04/23 04:52:45;;;;;;;26.70;17.63;;;;;;;4.81;100.00;101081.69;5092639;28;20040;-77
2022/04/23 04:55:10;;;;;;;26.05;18.17;;;;;;;4.77;100.00;101077.63;5092682;28;20047;-79
2022/04/23 04:57:36;;;;;;;28.92;17.88;;;;;;;4.87;100.00;101087.28;5058967;28;20490;-78
2022/04/23 05:00:03;;;;;;;24.67;18.02;;;;;;;5.00;100.00;101091.69;5075621;28;20043;-78
2022/04/23 05:02:28;;;;;;;29.85;18.55;;;;;;;4.98;100.00;101085.78;5073263;28;20028;-79
2022/04/23 05:04:54;;;;;;;26.48;17.50;;;;;;;5.02;100.00;101082.84;5072745;28;20040;-77
2022/04/23 05:07:19;;;;;;;24.20;17.50;;;;;;;5.06;100.00;101094.72;5077344;28;20064;-79
2022/04/23 05:09:45;;;;;;;31.73;17.73;;;;;;;5.02;100.00;101069.03;5089615;28;20032;-79
2022/04/23 05:12:10;;;;;;;28.80;17.58;;;;;;;5.16;100.00;101091.50;5055452;28;20028;-81
2022/04/23 05:14:36;;;;;;;27.60;17.02;;;;;;;5.18;100.00;101087.88;5073363;28;20772;-78
2022/04/23 05:17:02;;;;;;;24.55;17.27;;;;;;;5.22;100.00;101089.31;5074647;28;20040;-78
2022/04/23 05:19:27;;;;;;;27.30;16.75;;;;;;;5.36;100.00;101096.19;5104990;28;20068;-77
2022/04/23 05:21:53;;;;;;;27.45;17.35;;;;;;;5.33;100.00;101096.41;5057274;28;20131;-77
2022/04/23 05:24:19;;;;;;;25.20;16.85;;;;;;;5.46;100.00;101104.19;5088083;28;20149;-78
2022/04/23 05:26:44;;;;;;;23.73;15.88;;;;;;;5.50;100.00;101100.47;5079047;28;20028;-79
2022/04/23 05:29:10;;;;;;;21.25;16.27;;;;;;;5.43;100.00;101083.59;5071160;28;20036;-78
2022/04/23 05:31:38;;;;;;;23.83;15.45;;;;;;;5.71;100.00;101100.75;5059303;28;20397;-78
2022/04/23 05:34:04;;;;;;;23.27;15.70;;;;;;;5.78;100.00;101106.34;5066167;28;20139;-78
2022/04/23 05:36:30;;;;;;;24.05;15.55;;;;;;;5.80;100.00;101113.16;5075832;28;20035;-77
2022/04/23 05:38:56;;;;;;;20.30;14.75;;;;;;;5.87;100.00;101117.91;5092504;28;20036;-79
2022/04/23 05:41:22;;;;;;;21.70;16.15;;;;;;;5.90;100.00;101109.91;5060334;28;20042;-78
2022/04/23 05:43:48;;;;;;;23.30;15.68;;;;;;;5.99;100.00;101107.50;5093280;28;20051;-78
2022/04/23 05:46:16;;;;;;;18.38;14.55;;;;;;;6.21;100.00;101117.22;5073409;28;20035;-79
2022/04/23 05:48:42;;;;;;;19.42;14.55;;;;;;;6.37;100.00;101108.34;5080846;28;20089;-78
2022/04/23 05:51:08;;;;;;;17.73;14.18;;;;;;;6.45;100.00;101111.22;5090342;28;20039;-79
2022/04/23 05:53:34;;;;;;;21.08;13.55;;;;;;;6.55;100.00;101103.56;5057809;28;20707;-80
2022/04/23 05:55:59;;;;;;;21.42;14.48;;;;;;;6.69;100.00;101106.00;5073978;28;20513;-79
2022/04/23 05:58:25;;;;;;;16.95;12.75;;;;;;;6.75;100.00;101105.53;5074582;28;20082;-78
2022/04/23 06:00:51;;;;;;;20.50;12.88;;;;;;;6.90;100.00;101111.41;5066342;28;20505;-79
2022/04/23 06:03:17;;;;;;;15.18;12.63;;;;;;;7.03;100.00;101111.31;5060267;28;20069;-79
2022/04/23 06:05:43;;;;;;;18.45;12.50;;;;;;;7.15;100.00;101113.00;5074408;28;20030;-78
2022/04/23 06:08:08;;;;;;;19.30;11.65;;;;;;;7.06;100.00;101116.28;5091393;28;20111;-78
2022/04/23 06:10:35;;;;;;;17.95;12.43;;;;;;;7.16;100.00;101119.06;5059598;28;20047;-80
2022/04/23 06:13:01;;;;;;;16.48;12.30;;;;;;;7.25;100.00;101113.13;5079540;28;20040;-80
2022/04/23 06:15:26;;;;;;;18.27;12.20;;;;;;;7.35;100.00;101115.91;5091791;28;20024;-78
2022/04/23 06:17:52;;;;;;;16.33;11.75;;;;;;;7.50;100.00;101113.91;5075861;28;20118;-79
2022/04/23 06:20:17;;;;;;;21.58;11.95;;;;;;;7.53;100.00;101124.91;5056167;28;20036;-79
2022/04/23 06:22:43;;;;;;;16.52;12.02;;;;;;;7.63;100.00;101108.56;5057650;28;20032;-75
2022/04/23 06:25:09;;;;;;;18.63;11.35;;;;;;;7.91;98.41;101118.53;5090019;28;20036;-77
2022/04/23 06:27:36;;;;;;;20.13;12.02;;;;;;;7.95;98.97;101112.13;5075384;28;20439;-79
2022/04/23 06:30:03;;;;;;;15.38;11.10;;;;;;;8.21;98.50;101124.06;5075361;28;20145;-78
2022/04/23 06:32:29;;;;;;;17.15;11.30;;;;;;;8.50;95.56;101122.59;5074859;28;20035;-78
2022/04/23 06:34:55;;;;;;;13.80;10.10;;;;;;;8.50;94.01;101125.22;5091048;28;20502;-77
2022/04/23 06:37:20;;;;;;;13.30;10.25;;;;;;;8.51;93.59;101134.75;5089016;28;20136;-77
2022/04/23 06:39:46;;;;;;;13.63;10.30;;;;;;;8.57;93.64;101133.41;5092536;28;20066;-81
2022/04/23 06:42:12;;;;;;;12.75;10.23;;;;;;;8.81;91.80;101132.34;5072980;28;20036;-77
2022/04/23 06:44:38;;;;;;;14.82;9.90;;;;;;;9.03;90.23;101127.03;5057071;28;20407;-77
2022/04/23 06:47:04;;;;;;;14.32;9.65;;;;;;;9.25;88.02;101133.06;5076921;28;20039;-78
2022/04/23 06:49:30;;;;;;;13.05;10.30;;;;;;;9.36;87.09;101130.38;5089810;28;20405;-77
2022/04/23 06:51:56;;;;;;;13.18;9.65;;;;;;;9.48;87.80;101126.75;5064029;28;20164;-76
2022/04/23 06:54:22;;;;;;;12.23;9.45;;;;;;;9.76;85.92;101127.03;5091277;28;20024;-78
2022/04/23 06:56:48;;;;;;;10.35;8.45;;;;;;;9.98;82.47;101131.22;5058236;28;20143;-78
2022/04/23 06:59:14;;;;;;;10.68;8.73;;;;;;;10.13;82.77;101135.16;5083115;28;20071;-78
2022/04/23 07:01:42;;;;;;;10.70;8.38;;;;;;;10.32;83.81;101136.16;5057378;28;20032;-78
2022/04/23 07:04:09;;;;;;;11.65;8.98;;;;;;;10.44;81.65;101132.47;5072099;28;20842;-78
2022/04/23 07:06:35;;;;;;;11.32;8.05;;;;;;;10.48;78.03;101133.84;5073208;28;20032;-78
2022/04/23 07:09:01;;;;;;;11.32;7.65;;;;;;;10.57;78.00;101137.47;5091452;28;20113;-79
2022/04/23 07:11:26;;;;;;;8.77;7.47;;;;;;;10.72;76.59;101145.75;5091537;28;20044;-77
2022/04/23 07:13:52;;;;;;;10.35;7.22;;;;;;;10.80;75.88;101130.16;5090480;28;20035;-80
2022/04/23 07:16:18;;;;;;;9.70;7.00;;;;;;;10.99;76.67;101139.81;5092493;28;20096;-79
2022/04/23 07:18:43;;;;;;;9.57;7.45;;;;;;;11.09;72.76;101139.78;5093050;28;20382;-79
2022/04/23 07:21:09;;;;;;;10.60;6.90;;;;;;;11.22;71.16;101139.50;5084588;28;20544;-79
2022/04/23 07:26:19;;;;;;;7.30;6.30;;;;;;;11.63;71.88;101137.47;5073257;28;20036;-81
2022/04/23 07:28:45;;;;;;;7.63;6.72;;;;;;;11.59;68.09;101147.44;5089150;28;20084;-78
2022/04/23 07:31:11;;;;;;;8.05;6.80;;;;;;;11.54;68.12;101143.56;5073446;28;20032;-79
2022/04/23 07:39:05;;;;;;;6.95;5.68;;;;;;;11.88;67.05;101138.59;5074405;28;20052;-80
2022/04/23 07:41:31;;;;;;;6.88;5.85;;;;;;;12.00;68.93;101139.28;5074557;28;20391;-78
2022/04/23 07:43:56;;;;;;;11.55;5.45;;;;;;;12.17;66.61;101149.03;5074290;28;20482;-78
2022/04/23 07:46:23;;;;;;;11.07;5.43;;;;;;;12.12;66.55;101143.38;5089466;28;20029;-78
2022/04/23 07:48:50;;;;;;;5.60;4.90;;;;;;;12.39;63.25;101145.13;5075419;28;20028;-80
2022/04/23 07:51:17;;;;;;;5.53;4.40;;;;;;;12.49;60.73;101137.19;5062602;28;20036;-77
2022/04/23 07:53:42;;;;;;;5.13;4.63;;;;;;;12.45;59.83;101141.94;5087426;28;20032;-78
2022/04/23 07:56:08;;;;;;;7.15;4.80;;;;;;;12.27;59.82;101141.06;5075280;28;20039;-79
2022/04/23 07:58:33;;;;;;;6.00;4.63;;;;;;;12.32;59.34;101135.34;5075126;28;20077;-77
2022/04/23 08:00:59;;;;;;;6.10;4.60;;;;;;;12.43;59.68;101137.78;5073343;28;20048;-78
2022/04/23 08:03:24;;;;;;;5.00;4.32;;;;;;;12.44;59.50;101127.09;5086795;28;20102;-78
2022/04/23 08:05:50;;;;;;;6.25;4.40;;;;;;;12.45;57.37;101144.56;5092008;28;20044;-77
2022/04/23 08:08:20;;;;;;;4.82;4.40;;;;;;;12.30;58.15;101143.41;5076541;28;20070;-79
2022/04/23 08:10:47;;;;;;;4.88;4.40;;;;;;;12.44;58.62;101139.44;5091642;28;20059;-77
2022/04/23 08:13:13;;;;;;;4.57;4.18;;;;;;;12.43;58.96;101140.41;5072061;28;20089;-79
2022/04/23 08:15:39;;;;;;;4.53;3.95;;;;;;;12.74;56.85;101147.94;5060351;28;20024;-78
2022/04/23 08:18:06;;;;;;;9.90;3.65;;;;;;;13.00;57.06;101148.00;5091586;28;20040;-78
2022/04/23 08:20:32;;;;;;;6.05;4.20;;;;;;;13.01;55.94;101147.84;5078849;28;20043;-79
2022/04/23 08:22:57;;;;;;;5.03;3.80;;;;;;;13.01;56.23;101144.38;5074399;28;20032;-79
2022/04/23 08:25:23;;;;;;;4.75;4.20;;;;;;;13.02;56.81;101141.59;5074005;28;20209;-79
2022/04/23 08:27:54;;;;;;;4.70;4.20;;;;;;;13.15;56.00;101140.41;5072658;28;20101;-77
2022/04/23 08:30:36;;;;;;;5.88;3.40;;;;;;;13.33;56.15;101141.19;5089198;28;20504;-79
2022/04/23 08:33:05;;;;;;;4.28;3.88;;;;;;;13.44;55.50;101145.38;5087449;28;20184;-78
2022/04/23 08:35:32;;;;;;;5.53;4.03;;;;;;;13.50;54.40;101150.03;5090331;28;20059;-79
2022/04/23 08:37:57;;;;;;;5.82;3.78;;;;;;;13.42;53.67;101153.44;5090617;28;20040;-78
2022/04/23 08:40:23;;;;;;;4.43;3.80;;;;;;;13.44;53.44;101143.56;5073486;28;20056;-80
2022/04/23 08:42:49;;;;;;;4.63;3.70;;;;;;;13.56;53.93;101141.50;5089079;28;20059;-78
2022/04/23 08:45:14;;;;;;;5.53;4.15;;;;;;;13.51;54.02;101135.88;5090703;28;20032;-79
2022/04/23 08:47:46;;;;;;;5.80;3.30;;;;;;;13.71;53.97;101141.75;5090777;28;20167;-78
2022/04/23 08:50:14;;;;;;;4.10;3.70;;;;;;;13.59;53.39;101135.09;5071380;28;20036;-81
2022/04/23 08:52:45;;;;;;;4.88;3.95;;;;;;;13.52;51.76;101134.88;5092160;28;20039;-79
2022/04/23 08:55:14;;;;;;;6.63;3.90;;;;;;;13.43;52.52;101138.47;5090252;28;20088;-79
2022/04/23 08:57:43;;;;;;;10.80;4.15;;;;;;;13.33;52.98;101124.56;5084948;28;20048;-80
2022/04/23 09:00:14;;;;;;;4.10;3.70;;;;;;;13.54;53.59;101122.41;5090035;28;20039;-80
2022/04/23 09:02:42;;;;;;;3.88;3.58;;;;;;;13.75;52.90;101126.44;5074318;28;20502;-80
2022/04/23 09:05:14;;;;;;;4.10;3.50;;;;;;;13.84;52.96;101120.22;5072093;28;20032;-78
2022/04/23 09:07:51;;;;;;;5.32;3.85;;;;;;;13.93;51.27;101124.53;5071041;28;20062;-79
2022/04/23 09:10:16;;;;;;;6.53;3.90;;;;;;;14.01;50.72;101118.47;5090110;28;20044;-78
2022/04/23 09:12:56;;;;;;;3.75;3.42;;;;;;;14.09;50.95;101113.22;5069995;28;20044;-79
2022/04/23 09:23:44;;;;;;;4.72;4.18;;;;;;;14.51;51.77;101111.50;5075877;28;20044;-79
2022/04/23 09:26:17;;;;;;;4.47;3.55;;;;;;;14.54;49.29;101096.16;5070851;28;20044;-78
2022/04/23 09:28:48;;;;;;;4.28;3.65;;;;;;;14.71;50.48;101099.66;5072563;28;20028;-79
2022/04/23 09:31:15;;;;;;;6.15;4.28;;;;;;;14.61;50.96;101098.97;5089284;28;20047;-79
2022/04/23 09:33:49;;;;;;;4.97;3.65;;;;;;;14.50;49.37;101102.72;5089066;28;20114;-79
2022/04/23 09:36:15;;;;;;;4.15;3.70;;;;;;;14.73;50.73;101097.69;5100299;28;20043;-77
2022/04/23 09:38:41;;;;;;;4.63;3.33;;;;;;;14.90;47.81;101098.50;5090593;28;20502;-80
2022/04/23 09:41:15;;;;;;;7.15;3.53;;;;;;;15.07;48.36;101094.03;5092864;28;20035;-79
2022/04/23 09:43:42;;;;;;;4.07;3.60;;;;;;;15.15;48.57;101090.53;5082221;28;20038;-79
2022/04/23 09:46:09;;;;;;;4.60;3.67;;;;;;;15.07;48.67;101088.75;5089481;28;20042;-78
2022/04/23 09:48:38;;;;;;;4.80;3.78;;;;;;;14.96;49.40;101089.91;5089327;28;20028;-79
2022/04/23 09:51:05;;;;;;;3.53;3.22;;;;;;;15.13;48.04;101081.97;5089559;28;20155;-77
2022/04/23 09:53:30;;;;;;;4.15;3.70;;;;;;;15.02;46.95;101080.50;5088320;28;20513;-79
2022/04/23 09:56:02;;;;;;;6.07;3.30;;;;;;;14.76;45.30;101081.50;5069960;28;20043;-79
2022/04/23 09:58:32;;;;;;;6.43;3.42;;;;;;;14.83;45.89;101091.41;5087830;28;20666;-79
2022/04/23 10:00:59;;;;;;;5.93;3.67;;;;;;;15.21;46.57;101092.50;5068983;28;20044;-79
2022/04/23 10:03:29;;;;;;;5.22;3.70;;;;;;;15.49;46.50;101082.34;5088909;28;20561;-80
2022/04/23 10:05:55;;;;;;;3.42;3.13;;;;;;;15.20;46.42;101080.31;5089671;28;20051;-80
2022/04/23 10:08:24;;;;;;;4.10;3.70;;;;;;;15.35;44.57;101089.19;5072295;28;20043;-79
2022/04/23 10:10:49;;;;;;;3.80;3.50;;;;;;;15.43;45.97;101092.81;5055349;28;20045;-78
2022/04/23 10:13:16;;;;;;;4.28;3.33;;;;;;;15.60;45.99;101085.63;5103549;28;20044;-78
2022/04/23 10:15:47;;;;;;;4.97;3.17;;;;;;;15.60;47.08;101094.38;5089382;28;20501;-79
2022/04/23 10:18:13;;;;;;;3.65;3.25;;;;;;;15.83;46.02;101085.72;5070025;28;20040;-79
2022/04/23 10:20:40;;;;;;;5.65;3.45;;;;;;;15.98;46.74;101086.66;5073922;28;20509;-79
2022/04/23 10:23:14;;;;;;;4.13;3.58;;;;;;;16.15;44.87;101077.59;5092357;28;20068;-80
2022/04/23 10:25:47;;;;;;;5.78;3.17;;;;;;;15.94;44.74;101077.41;5082648;28;20036;-79
2022/04/23 10:28:16;;;;;;;4.47;2.95;;;;;;;15.90;44.64;101078.75;5055643;28;20118;-80
2022/04/23 10:30:45;;;;;;;3.95;3.33;;;;;;;15.94;43.58;101088.00;5095330;28;20056;-79
2022/04/23 10:33:27;;;;;;;4.03;3.33;;;;;;;15.80;44.42;101075.50;5088338;28;20043;-79
2022/04/23 10:36:10;;;;;;;4.05;3.63;;;;;;;15.98;43.88;101080.53;5090626;28;20119;-80
2022/04/23 10:39:02;;;;;;;4.00;3.53;;;;;;;15.75;44.10;101070.72;5055874;28;20043;-77
2022/04/23 10:41:27;;;;;;;3.58;3.10;;;;;;;16.03;44.93;101080.81;5086588;28;20071;-79
2022/04/23 10:43:59;;;;;;;3.63;3.28;;;;;;;16.11;43.97;101068.38;5088767;28;20489;-79
2022/04/23 10:46:37;;;;;;;4.65;3.33;;;;;;;16.02;43.52;101063.31;5058943;28;20036;-81
2022/04/23 10:49:14;;;;;;;4.32;3.92;;;;;;;15.88;44.08;101068.34;5072294;28;20032;-79
2022/04/23 10:51:46;;;;;;;4.90;3.55;;;;;;;16.24;43.55;101067.81;5105714;28;20036;-78
2022/04/23 10:54:16;;;;;;;3.75;3.45;;;;;;;16.08;43.97;101058.13;5086846;28;20709;-81
2022/04/23 10:56:43;;;;;;;5.63;3.72;;;;;;;16.36;42.76;101065.56;5071765;28;20139;-80
2022/04/23 10:59:40;;;;;;;3.67;3.13;;;;;;;16.71;42.99;101055.38;5089260;28;20028;-79
2022/04/23 11:02:29;;;;;;;3.97;3.55;;;;;;;17.03;43.26;101056.09;5056594;28;20425;-79
2022/04/23 11:14:07;;;;;;;3.25;2.97;;;;;;;17.70;42.53;101060.44;5083711;28;20035;-77
2022/04/23 11:16:34;;;;;;;4.15;3.50;;;;;;;17.21;40.07;101045.94;5085019;28;20032;-80
2022/04/23 11:19:01;;;;;;;6.00;3.60;;;;;;;17.44;41.17;101051.16;5089651;28;20035;-79
2022/04/23 11:21:29;;;;;;;7.05;3.30;;;;;;;17.52;41.89;101042.28;5077005;28;20040;-78
2022/04/23 11:23:56;;;;;;;3.63;3.25;;;;;;;17.56;40.17;101043.56;5089562;28;20533;-80
2022/04/23 11:26:39;;;;;;;6.68;3.20;;;;;;;17.56;40.10;101029.47;5071167;28;20489;-80
2022/04/23 11:29:05;;;;;;;3.35;3.05;;;;;;;17.47;40.32;101034.03;5072048;28;20043;-78
2022/04/23 11:31:31;;;;;;;6.60;3.47;;;;;;;17.47;40.49;101026.91;5087952;28;20042;-78
2022/04/23 11:33:58;;;;;;;4.50;3.67;;;;;;;17.49;39.19;101030.19;5071574;28;20034;-81
2022/04/23 11:36:26;;;;;;;4.63;2.92;;;;;;;17.18;41.35;101033.06;5083074;28;20398;-79
2022/04/23 11:38:53;;;;;;;4.55;3.75;;;;;;;16.95;41.44;101030.47;5073137;28;20406;-79
2022/04/23 11:41:49;;;;;;;6.85;3.80;;;;;;;16.38;41.20;101023.84;5070563;28;20028;-81
2022/04/23 11:44:17;;;;;;;3.95;3.33;;;;;;;16.38;41.70;101020.38;5053050;28;20130;-81
2022/04/23 11:46:44;;;;;;;8.18;3.70;;;;;;;16.69;43.15;101015.81;5087948;28;20247;-80